createdAt,value
2018-07-07T00:00:44.417Z,5.90
2018-07-07T00:03:11.882Z,6.30
2018-07-07T00:05:39.359Z,8.18
2018-07-07T00:08:06.750Z,6.62
2018-07-07T00:10:34.304Z,4.40
2018-07-07T00:13:01.730Z,5.72
2018-07-07T00:15:29.639Z,5.35
2018-07-07T00:17:57.067Z,5.12
2018-07-07T00:20:24.464Z,5.75
2018-07-07T00:22:51.902Z,6.03
2018-07-07T00:25:19.409Z,6.12
2018-07-07T00:27:46.881Z,5.85
2018-07-07T00:30:14.330Z,7.68
2018-07-07T00:32:41.754Z,5.75
2018-07-07T00:35:09.194Z,5.55
2018-07-07T00:37:36.653Z,4.85
2018-07-07T00:40:04.106Z,6.82
2018-07-07T00:42:34.261Z,5.50
2018-07-07T00:45:01.749Z,4.90
2018-07-07T00:47:29.192Z,7.93
2018-07-07T00:49:56.666Z,5.57
2018-07-07T00:52:24.087Z,5.82
2018-07-07T00:54:51.560Z,7.28
2018-07-07T00:57:19.032Z,5.95
2018-07-07T00:59:46.516Z,7.00
2018-07-07T01:02:14.072Z,6.68
2018-07-07T01:04:41.509Z,5.57
2018-07-07T01:07:09.121Z,6.78
2018-07-07T01:09:36.592Z,6.62
2018-07-07T01:12:04.091Z,6.40
2018-07-07T01:14:31.643Z,6.87
2018-07-07T01:16:59.104Z,5.30
2018-07-07T01:19:26.536Z,6.65
2018-07-07T01:21:53.954Z,7.18
2018-07-07T01:24:21.421Z,6.60
2018-07-07T01:26:48.898Z,6.85
2018-07-07T01:29:16.302Z,5.72
2018-07-07T01:31:43.743Z,7.75
2018-07-07T01:34:11.177Z,5.20
2018-07-07T01:36:38.598Z,6.65
2018-07-07T01:39:06.055Z,7.55
2018-07-07T01:41:33.529Z,7.22
2018-07-07T01:44:00.971Z,6.93
2018-07-07T01:46:28.538Z,7.12
2018-07-07T01:48:55.932Z,7.57
2018-07-07T01:51:23.419Z,7.32
2018-07-07T01:53:50.822Z,6.72
2018-07-07T01:56:18.339Z,6.95
2018-07-07T01:58:45.805Z,6.43
2018-07-07T02:01:13.294Z,6.03
2018-07-07T02:03:40.737Z,6.03
2018-07-07T02:06:09.379Z,7.93
2018-07-07T02:08:36.881Z,6.90
2018-07-07T02:11:04.324Z,6.75
2018-07-07T02:13:32.063Z,6.70
2018-07-07T02:15:59.461Z,6.85
2018-07-07T02:18:26.895Z,5.85
2018-07-07T02:20:54.530Z,6.55
2018-07-07T02:23:21.959Z,4.90
2018-07-07T02:25:49.387Z,5.22
2018-07-07T02:28:16.843Z,6.60
2018-07-07T02:30:44.439Z,6.80
2018-07-07T02:33:11.858Z,6.53
2018-07-07T02:35:39.272Z,6.03
2018-07-07T02:38:06.796Z,7.85
2018-07-07T02:40:34.298Z,6.12
2018-07-07T02:43:01.757Z,8.57
2018-07-07T02:45:29.255Z,6.82
2018-07-07T02:47:56.732Z,5.93
2018-07-07T02:50:24.169Z,5.80
2018-07-07T02:52:51.715Z,6.22
2018-07-07T02:55:19.140Z,5.53
2018-07-07T02:57:46.587Z,6.03
2018-07-07T03:00:14.012Z,6.85
2018-07-07T03:02:41.574Z,6.32
2018-07-07T03:05:09.037Z,6.85
2018-07-07T03:07:36.701Z,7.15
2018-07-07T03:10:04.145Z,8.25
2018-07-07T03:12:31.610Z,6.18
2018-07-07T03:14:59.037Z,6.78
2018-07-07T03:17:26.523Z,7.47
2018-07-07T03:19:53.955Z,6.93
2018-07-07T03:22:21.430Z,10.15
2018-07-07T03:24:48.898Z,7.05
2018-07-07T03:27:16.344Z,6.65
2018-07-07T03:29:43.779Z,6.00
2018-07-07T03:32:11.226Z,6.20
2018-07-07T03:34:38.655Z,5.60
2018-07-07T03:37:06.112Z,6.60
2018-07-07T03:39:33.558Z,6.12
2018-07-07T03:42:01.026Z,6.80
2018-07-07T03:44:28.507Z,5.93
2018-07-07T03:46:55.940Z,6.53
2018-07-07T03:49:23.374Z,5.87
2018-07-07T03:51:50.800Z,6.35
2018-07-07T03:54:18.193Z,6.60
2018-07-07T03:56:45.699Z,6.25
2018-07-07T03:59:13.195Z,5.82
2018-07-07T04:01:40.806Z,6.43
2018-07-07T04:04:08.238Z,6.70
2018-07-07T04:06:35.708Z,5.05
2018-07-07T04:09:03.308Z,7.28
2018-07-07T04:11:30.745Z,6.62
2018-07-07T04:13:58.186Z,7.03
2018-07-07T04:16:25.721Z,5.87
2018-07-07T04:18:53.210Z,8.15
2018-07-07T04:21:20.618Z,7.00
2018-07-07T04:23:48.107Z,6.82
2018-07-07T04:26:15.515Z,6.37
2018-07-07T04:28:42.952Z,5.82
2018-07-07T04:31:10.431Z,6.37
2018-07-07T04:33:37.864Z,6.30
2018-07-07T04:36:05.298Z,5.65
2018-07-07T04:38:32.739Z,7.90
2018-07-07T04:41:00.182Z,7.15
2018-07-07T04:43:27.661Z,7.20
2018-07-07T04:45:55.445Z,7.78
2018-07-07T04:48:22.881Z,5.80
2018-07-07T04:50:50.342Z,6.87
2018-07-07T04:53:17.839Z,5.55
2018-07-07T04:55:45.470Z,7.53
2018-07-07T04:58:13.015Z,5.40
2018-07-07T05:00:40.442Z,6.40
2018-07-07T05:03:08.011Z,7.10
2018-07-07T05:05:35.494Z,7.05
2018-07-07T05:08:02.964Z,6.32
2018-07-07T05:10:30.370Z,9.32
2018-07-07T05:12:57.835Z,7.12
2018-07-07T05:15:25.395Z,5.47
2018-07-07T05:17:53.009Z,7.68
2018-07-07T05:20:20.443Z,6.97
2018-07-07T05:22:47.886Z,6.70
2018-07-07T05:25:15.391Z,7.95
2018-07-07T05:27:42.805Z,6.37
2018-07-07T05:30:10.281Z,9.93
2018-07-07T05:32:37.715Z,8.23
2018-07-07T05:35:05.177Z,7.28
2018-07-07T05:37:32.669Z,8.70
2018-07-07T05:40:00.089Z,7.93
2018-07-07T05:42:27.561Z,8.75
2018-07-07T05:44:55.022Z,7.15
2018-07-07T05:47:22.450Z,7.53
2018-07-07T05:49:49.959Z,8.73
2018-07-07T05:52:17.493Z,8.60
2018-07-07T05:54:44.927Z,8.20
2018-07-07T05:57:12.406Z,7.62
2018-07-07T05:59:39.943Z,7.25
2018-07-07T06:02:07.428Z,9.50
2018-07-07T06:04:34.884Z,6.70
2018-07-07T06:07:02.372Z,7.53
2018-07-07T06:09:29.818Z,6.78
2018-07-07T06:11:57.308Z,6.82
2018-07-07T06:14:24.849Z,6.87
2018-07-07T06:16:52.292Z,6.78
2018-07-07T06:19:19.721Z,7.30
2018-07-07T06:21:47.172Z,8.45
2018-07-07T06:24:14.714Z,6.62
2018-07-07T06:26:42.214Z,7.68
2018-07-07T06:29:09.594Z,7.20
2018-07-07T06:31:37.069Z,6.82
2018-07-07T06:34:04.516Z,8.98
2018-07-07T06:36:32.009Z,8.73
2018-07-07T06:38:59.482Z,7.00
2018-07-07T06:41:26.920Z,7.50
2018-07-07T06:43:54.483Z,7.35
2018-07-07T06:46:21.953Z,7.60
2018-07-07T06:48:49.432Z,7.53
2018-07-07T06:51:16.883Z,6.25
2018-07-07T06:53:44.357Z,6.85
2018-07-07T06:56:11.839Z,7.93
2018-07-07T06:58:39.338Z,6.28
2018-07-07T07:01:06.794Z,7.12
2018-07-07T07:03:34.272Z,6.18
2018-07-07T07:06:01.724Z,7.75
2018-07-07T07:08:29.224Z,6.90
2018-07-07T07:10:56.833Z,7.07
2018-07-07T07:13:24.336Z,6.60
2018-07-07T07:15:52.456Z,6.80
2018-07-07T07:18:19.941Z,6.57
2018-07-07T07:20:47.399Z,6.03
2018-07-07T07:23:14.849Z,6.75
2018-07-07T07:25:42.282Z,5.35
2018-07-07T07:28:09.790Z,6.75
2018-07-07T07:30:37.250Z,6.62
2018-07-07T07:33:04.781Z,6.75
2018-07-07T07:35:32.224Z,6.15
2018-07-07T07:37:59.769Z,5.00
2018-07-07T07:40:27.247Z,6.40
2018-07-07T07:42:55.016Z,5.97
2018-07-07T07:45:22.458Z,6.05
2018-07-07T07:47:49.846Z,6.40
2018-07-07T07:50:17.291Z,6.47
2018-07-07T07:52:44.764Z,6.00
2018-07-07T07:55:12.248Z,6.10
2018-07-07T07:57:39.701Z,6.50
2018-07-07T08:00:07.190Z,7.80
2018-07-07T08:02:34.671Z,5.53
2018-07-07T08:05:02.246Z,5.90
2018-07-07T08:07:29.659Z,6.82
2018-07-07T08:09:57.096Z,6.82
2018-07-07T08:12:24.729Z,7.93
2018-07-07T08:14:52.199Z,11.27
2018-07-07T08:17:19.791Z,8.43
2018-07-07T08:19:47.404Z,9.02
2018-07-07T08:22:14.888Z,7.45
2018-07-07T08:24:42.476Z,8.32
2018-07-07T08:27:10.053Z,8.05
2018-07-07T08:29:37.479Z,7.12
2018-07-07T08:32:05.048Z,7.55
2018-07-07T08:34:32.551Z,5.53
2018-07-07T08:37:00.016Z,7.07
2018-07-07T08:39:28.478Z,7.57
2018-07-07T08:41:55.969Z,6.72
2018-07-07T08:44:23.358Z,8.68
2018-07-07T08:46:50.851Z,7.22
2018-07-07T08:49:18.317Z,8.35
2018-07-07T08:51:45.744Z,7.10
2018-07-07T08:54:13.675Z,8.40
2018-07-07T08:56:41.146Z,9.23
2018-07-07T08:59:08.645Z,8.57
2018-07-07T09:01:36.695Z,7.15
2018-07-07T09:04:04.238Z,9.25
2018-07-07T09:06:31.738Z,9.32
2018-07-07T09:08:59.253Z,9.00
2018-07-07T09:11:26.743Z,7.03
2018-07-07T09:13:54.202Z,8.57
2018-07-07T09:16:21.630Z,8.77
2018-07-07T09:18:49.084Z,8.50
2018-07-07T09:21:16.534Z,9.35
2018-07-07T09:23:44.014Z,8.77
2018-07-07T09:26:11.472Z,7.12
2018-07-07T09:28:38.999Z,7.60
2018-07-07T09:31:06.495Z,8.00
2018-07-07T09:33:34.262Z,8.95
2018-07-07T09:36:01.767Z,6.20
2018-07-07T09:58:19.934Z,10.70
2018-07-07T10:10:35.385Z,7.82
2018-07-07T10:13:02.842Z,10.05
2018-07-07T10:15:30.431Z,6.95
2018-07-07T10:20:24.896Z,7.65
2018-07-07T10:22:52.337Z,137.80
2018-07-07T10:25:19.884Z,134.45
2018-07-07T10:27:47.371Z,155.00
2018-07-07T10:30:14.886Z,197.77
2018-07-07T10:35:09.367Z,140.32
2018-07-07T10:37:36.807Z,149.30
2018-07-07T10:40:04.255Z,144.00
2018-07-07T10:49:52.796Z,48.55
2018-07-07T11:04:35.483Z,53.20
2018-07-07T11:19:17.798Z,7.30
2018-07-07T12:18:06.886Z,9.13
2018-07-07T12:57:21.303Z,8.32
2018-07-07T12:59:48.769Z,5.93
2018-07-07T13:02:16.302Z,9.00
2018-07-07T13:04:43.796Z,7.40
2018-07-07T13:07:11.464Z,7.75
2018-07-07T13:09:38.903Z,6.47
2018-07-07T13:12:06.354Z,4.97
2018-07-07T13:14:34.737Z,5.80
2018-07-07T13:17:02.278Z,7.10
2018-07-07T13:19:29.794Z,7.50
2018-07-07T13:21:57.315Z,7.00
2018-07-07T13:24:24.786Z,8.00
2018-07-07T13:26:52.387Z,7.90
2018-07-07T13:29:19.988Z,7.78
2018-07-07T13:31:47.448Z,6.65
2018-07-07T13:34:14.905Z,7.22
2018-07-07T13:36:42.413Z,6.35
2018-07-07T13:39:09.822Z,7.75
2018-07-07T13:41:37.283Z,7.18
2018-07-07T13:44:04.772Z,8.60
2018-07-07T13:46:32.168Z,8.98
2018-07-07T13:48:59.671Z,6.82
2018-07-07T13:51:27.104Z,7.32
2018-07-07T13:53:54.548Z,6.10
2018-07-07T13:56:22.008Z,5.80
2018-07-07T13:58:49.491Z,8.90
2018-07-07T14:01:16.939Z,8.63
2018-07-07T14:03:44.332Z,6.57
2018-07-07T14:06:11.750Z,6.15
2018-07-07T14:08:39.262Z,6.37
2018-07-07T14:11:06.792Z,7.60
2018-07-07T14:16:08.030Z,8.10
2018-07-07T14:18:35.500Z,8.38
2018-07-07T14:21:02.971Z,7.90
2018-07-07T14:23:30.548Z,6.25
2018-07-07T14:25:58.036Z,6.22
2018-07-07T14:28:25.463Z,6.57
2018-07-07T14:30:52.933Z,6.55
2018-07-07T14:33:20.385Z,6.62
2018-07-07T14:35:47.812Z,6.05
2018-07-07T14:38:15.302Z,6.20
2018-07-07T14:40:42.751Z,5.95
2018-07-07T14:43:10.213Z,6.57
2018-07-07T14:45:37.610Z,5.60
2018-07-07T14:48:05.124Z,8.15
2018-07-07T14:50:32.599Z,5.80
2018-07-07T14:53:00.238Z,6.07
2018-07-07T14:55:27.720Z,4.65
2018-07-07T14:57:55.201Z,5.47
2018-07-07T15:00:22.612Z,4.50
2018-07-07T15:02:50.043Z,9.13
2018-07-07T15:05:17.656Z,4.07
2018-07-07T15:07:45.127Z,4.75
2018-07-07T15:10:12.588Z,4.97
2018-07-07T15:12:40.038Z,4.80
2018-07-07T15:15:07.538Z,4.00
2018-07-07T15:17:35.039Z,3.33
2018-07-07T15:20:02.571Z,4.45
2018-07-07T15:22:30.142Z,3.83
2018-07-07T15:24:57.538Z,3.83
2018-07-07T15:27:25.003Z,3.85
2018-07-07T15:29:52.440Z,3.95
2018-07-07T15:32:19.975Z,4.45
2018-07-07T15:34:47.478Z,3.55
2018-07-07T15:37:14.976Z,4.05
2018-07-07T15:39:42.549Z,3.95
2018-07-07T15:42:10.039Z,3.42
2018-07-07T15:44:37.479Z,4.22
2018-07-07T15:47:04.877Z,4.12
2018-07-07T15:49:32.356Z,4.25
2018-07-07T15:51:59.840Z,3.95
2018-07-07T15:54:27.315Z,4.22
2018-07-07T15:56:54.740Z,4.47
2018-07-07T15:59:22.253Z,4.70
2018-07-07T16:01:49.691Z,4.95
2018-07-07T16:04:17.126Z,4.05
2018-07-07T16:06:44.659Z,3.87
2018-07-07T16:09:12.093Z,4.45
2018-07-07T16:11:39.595Z,5.50
2018-07-07T16:14:07.040Z,3.90
2018-07-07T16:16:34.880Z,4.30
2018-07-07T16:19:02.372Z,6.03
2018-07-07T16:21:29.856Z,3.65
2018-07-07T16:23:57.266Z,5.35
2018-07-07T16:26:24.722Z,5.68
2018-07-07T16:28:52.180Z,5.35
2018-07-07T16:31:19.708Z,7.40
2018-07-07T16:33:47.157Z,5.20
2018-07-07T16:36:14.600Z,4.50
2018-07-07T16:38:42.090Z,4.55
2018-07-07T16:41:09.487Z,5.03
2018-07-07T16:43:36.990Z,5.35
2018-07-07T16:46:04.493Z,5.15
2018-07-07T16:48:31.955Z,4.40
2018-07-07T16:50:59.508Z,4.35
2018-07-07T16:53:26.930Z,5.20
2018-07-07T16:55:54.380Z,5.55
2018-07-07T16:58:21.853Z,4.40
2018-07-07T17:00:49.346Z,6.30
2018-07-07T17:03:16.987Z,5.95
2018-07-07T17:05:44.444Z,4.57
2018-07-07T17:08:12.003Z,4.57
2018-07-07T17:10:39.503Z,5.30
2018-07-07T17:13:07.054Z,5.20
2018-07-07T17:15:34.596Z,6.10
2018-07-07T17:18:02.100Z,6.72
2018-07-07T17:20:29.571Z,5.15
2018-07-07T17:22:57.047Z,5.62
2018-07-07T17:25:24.526Z,4.78
2018-07-07T17:27:52.041Z,5.78
2018-07-07T17:30:19.593Z,5.45
2018-07-07T17:32:47.019Z,6.45
2018-07-07T17:35:14.508Z,5.37
2018-07-07T17:37:41.960Z,6.05
2018-07-07T17:40:09.388Z,6.53
2018-07-07T17:42:36.869Z,5.50
2018-07-07T17:45:04.606Z,5.43
2018-07-07T17:47:33.070Z,8.90
2018-07-07T17:50:00.539Z,6.90
2018-07-07T17:52:27.976Z,5.30
2018-07-07T17:54:55.602Z,4.45
2018-07-07T17:57:23.081Z,5.57
2018-07-07T17:59:50.574Z,5.20
2018-07-07T18:02:18.034Z,5.68
2018-07-07T18:04:45.468Z,5.30
2018-07-07T18:07:12.977Z,6.75
2018-07-07T18:09:40.407Z,7.37
2018-07-07T18:12:07.886Z,6.72
2018-07-07T18:14:35.444Z,6.97
2018-07-07T18:17:02.938Z,7.82
2018-07-07T18:19:30.404Z,5.70
2018-07-07T18:21:58.081Z,5.37
2018-07-07T18:24:25.526Z,6.60
2018-07-07T18:26:53.016Z,6.50
2018-07-07T18:29:21.201Z,6.22
2018-07-07T18:31:48.704Z,5.57
2018-07-07T18:34:16.140Z,6.93
2018-07-07T18:36:43.623Z,5.75
2018-07-07T18:39:11.268Z,5.30
2018-07-07T18:41:38.681Z,6.12
2018-07-07T18:44:06.156Z,5.68
2018-07-07T18:46:33.614Z,5.12
2018-07-07T18:49:01.583Z,5.22
2018-07-07T18:51:29.101Z,6.10
2018-07-07T18:53:56.606Z,4.65
2018-07-07T18:56:24.143Z,4.70
2018-07-07T18:58:51.923Z,5.18
2018-07-07T19:01:19.401Z,4.82
2018-07-07T19:03:46.853Z,4.45
2018-07-07T19:06:14.278Z,5.12
2018-07-07T19:08:41.691Z,4.32
2018-07-07T19:11:09.175Z,6.32
2018-07-07T19:13:36.641Z,6.53
2018-07-07T19:16:04.130Z,5.12
2018-07-07T19:18:31.662Z,5.97
2018-07-07T19:20:59.249Z,5.90
2018-07-07T19:26:35.345Z,9.02
2018-07-07T19:29:03.039Z,5.95
2018-07-07T19:31:30.533Z,7.10
2018-07-07T19:36:58.483Z,7.10
2018-07-07T19:39:25.954Z,4.62
2018-07-07T19:41:53.350Z,4.75
2018-07-07T19:44:20.877Z,5.18
2018-07-07T19:46:48.339Z,6.22
2018-07-07T19:49:16.041Z,5.47
2018-07-07T19:51:43.782Z,6.20
2018-07-07T19:54:11.259Z,5.75
2018-07-07T19:56:38.740Z,6.80
2018-07-07T19:59:06.169Z,7.15
2018-07-07T20:01:33.646Z,7.37
2018-07-07T20:04:01.072Z,8.80
2018-07-07T20:06:28.482Z,6.80
2018-07-07T20:08:55.954Z,7.15
2018-07-07T20:11:23.396Z,5.50
2018-07-07T20:13:50.844Z,7.12
2018-07-07T20:16:18.331Z,6.68
2018-07-07T20:18:45.800Z,5.50
2018-07-07T20:24:25.893Z,9.20
2018-07-07T20:26:53.269Z,5.93
2018-07-07T20:29:21.295Z,5.85
2018-07-07T20:31:48.776Z,6.20
2018-07-07T20:34:16.228Z,6.03
2018-07-07T20:36:43.688Z,5.95
2018-07-07T20:39:11.137Z,5.50
2018-07-07T20:41:38.537Z,6.43
2018-07-07T20:44:05.950Z,4.60
2018-07-07T20:46:33.392Z,5.72
2018-07-07T20:49:00.797Z,6.55
2018-07-07T20:51:28.288Z,6.35
2018-07-07T20:53:55.784Z,5.25
2018-07-07T20:56:23.192Z,4.80
2018-07-07T20:58:50.675Z,5.07
2018-07-07T21:01:18.183Z,5.43
2018-07-07T21:03:45.753Z,5.45
2018-07-07T21:06:13.167Z,114.78
2018-07-07T21:08:40.621Z,61.97
2018-07-07T21:11:08.144Z,68.87
2018-07-07T21:13:35.598Z,74.65
2018-07-07T21:16:03.014Z,62.78
2018-07-07T21:18:30.613Z,64.68
2018-07-07T21:20:58.054Z,87.40
2018-07-07T21:23:26.639Z,71.50
2018-07-07T21:25:54.039Z,86.43
2018-07-07T21:28:21.513Z,109.03
2018-07-07T21:30:49.008Z,65.68
2018-07-07T21:33:16.491Z,76.45
2018-07-07T21:35:44.019Z,62.33
2018-07-07T21:38:11.457Z,66.93
2018-07-07T21:40:38.915Z,59.13
2018-07-07T21:43:06.712Z,66.62
2018-07-07T21:45:34.142Z,69.15
2018-07-07T21:48:02.118Z,77.15
2018-07-07T21:50:29.570Z,77.12
2018-07-07T21:52:57.044Z,95.05
2018-07-07T21:55:24.556Z,87.57
2018-07-07T21:57:52.152Z,90.78
2018-07-07T22:00:19.658Z,92.68
2018-07-07T22:05:39.332Z,105.80
2018-07-07T22:08:06.954Z,91.35
2018-07-07T22:10:34.413Z,85.38
2018-07-07T22:13:01.925Z,90.45
2018-07-07T22:15:29.420Z,88.70
2018-07-07T22:17:56.953Z,91.93
2018-07-07T22:20:24.620Z,90.97
2018-07-07T22:22:52.038Z,95.90
2018-07-07T22:25:19.525Z,93.20
2018-07-07T22:27:46.994Z,88.22
2018-07-07T22:30:14.442Z,90.55
2018-07-07T22:32:42.081Z,92.37
2018-07-07T22:35:09.590Z,94.55
2018-07-07T22:37:37.290Z,89.22
2018-07-07T22:40:04.710Z,93.10
2018-07-07T22:42:32.220Z,91.10
2018-07-07T22:44:59.660Z,90.38
2018-07-07T22:47:27.189Z,90.65
2018-07-07T22:49:54.655Z,88.03
2018-07-07T22:52:22.139Z,91.37
2018-07-07T22:54:49.666Z,90.35
2018-07-07T22:57:17.134Z,89.37
2018-07-07T22:59:44.631Z,84.47
2018-07-07T23:02:12.095Z,81.50
2018-07-07T23:04:39.565Z,90.82
2018-07-07T23:07:06.991Z,88.32
2018-07-07T23:09:34.811Z,87.57
2018-07-07T23:12:02.277Z,92.82
2018-07-07T23:14:29.765Z,86.28
2018-07-07T23:16:57.214Z,6.57
2018-07-07T23:19:24.643Z,7.05
2018-07-07T23:21:52.113Z,7.87
2018-07-07T23:24:19.560Z,7.22
2018-07-07T23:26:47.080Z,6.80
2018-07-07T23:29:14.536Z,6.50
2018-07-07T23:31:41.935Z,7.87
2018-07-07T23:34:09.422Z,5.82
2018-07-07T23:36:36.909Z,6.75
2018-07-07T23:39:04.308Z,7.60
2018-07-07T23:41:31.744Z,7.37
2018-07-07T23:43:59.195Z,6.95
2018-07-07T23:46:26.627Z,6.40
2018-07-07T23:48:54.098Z,9.38
2018-07-07T23:51:21.583Z,7.60
2018-07-07T23:53:49.064Z,6.35
2018-07-07T23:56:16.535Z,6.45
2018-07-07T23:58:43.944Z,6.15
